Time;durP1;ratioP1;P1;durP2;ratioP2;P2;SDS_P1;SDS_P2;PMS_P1;PMS_P2;Temp;Humidity;BMP_temperature;BMP_pressure;BME280_temperature;BME280_humidity;BME280_pressure;Samples;Min_cycle;Max_cycle;Signal;HPM_P1;HPM_P2
2022/02/12 00:03:35;;;;;;;5.07;2.65;;;;;;;3.04;62.53;99250.66;9920009;29;20055;-80
2022/02/12 00:08:56;;;;;;;4.68;2.80;;;;;;;2.94;62.83;99257.72;9894855;30;20058;-80
2022/02/12 00:14:17;;;;;;;3.95;2.35;;;;;;;2.82;62.79;99257.00;9907364;29;20047;-80
2022/02/12 00:19:37;;;;;;;3.00;1.88;;;;;;;2.77;62.91;99238.44;9915025;30;20051;-80
2022/02/12 00:24:58;;;;;;;2.70;1.80;;;;;;;2.68;62.98;99249.00;9914775;30;20549;-79
2022/02/12 00:30:21;;;;;;;3.17;2.40;;;;;;;2.64;63.63;99262.31;9914559;30;20099;-79
2022/02/12 00:36:19;;;;;;;2.63;1.95;;;;;;;2.70;63.33;99276.81;9905651;30;20102;-79
2022/02/12 00:41:40;;;;;;;8.30;2.33;;;;;;;2.67;62.84;99253.78;9916132;30;20383;-79
2022/02/12 00:47:02;;;;;;;6.32;2.65;;;;;;;2.73;63.19;99259.28;9927611;29;20071;-79
2022/02/12 00:52:53;;;;;;;5.50;2.67;;;;;;;2.71;62.91;99264.56;9914583;30;20137;-79
2022/02/12 00:58:15;;;;;;;5.80;2.60;;;;;;;2.66;63.22;99263.31;9901541;30;20056;-79
2022/02/12 01:05:08;;;;;;;3.97;2.20;;;;;;;2.68;63.19;99260.78;9904851;30;20514;-80
2022/02/12 01:10:36;;;;;;;5.33;2.80;;;;;;;2.71;63.22;99268.06;9915399;30;20104;-80
2022/02/12 01:16:00;;;;;;;4.47;2.60;;;;;;;2.66;63.03;99268.06;9900942;30;20171;-80
2022/02/12 01:21:27;;;;;;;6.85;2.50;;;;;;;2.60;62.91;99268.06;9900960;30;20062;-80
2022/02/12 01:26:51;;;;;;;3.75;2.25;;;;;;;2.52;63.10;99267.84;9914157;29;20048;-79
2022/02/12 01:32:13;;;;;;;3.92;2.13;;;;;;;2.50;62.83;99270.34;9902062;30;20452;-80
2022/02/12 01:38:02;;;;;;;5.82;2.33;;;;;;;2.43;63.29;99281.13;9923910;29;20067;-79
2022/02/12 01:43:23;;;;;;;6.38;2.38;;;;;;;2.40;62.70;99288.38;9901209;30;20055;-80
2022/02/12 01:49:22;;;;;;;4.15;2.63;;;;;;;2.25;62.98;99296.91;9913926;30;20059;-80
2022/02/12 01:55:21;;;;;;;5.95;2.08;;;;;;;2.23;63.52;99298.69;9895077;30;20130;-80
2022/02/12 02:00:48;;;;;;;5.20;1.83;;;;;;;2.23;62.91;99290.41;9900834;30;20191;-80
2022/02/12 02:06:12;;;;;;;2.60;1.45;;;;;;;2.24;63.35;99306.44;9899510;30;20377;-80
2022/02/12 02:12:09;;;;;;;4.88;2.05;;;;;;;2.25;62.98;99304.44;9903716;30;20051;-80
2022/02/12 02:18:00;;;;;;;5.25;2.08;;;;;;;2.22;63.19;99299.91;9896043;30;20063;-80
2022/02/12 02:23:21;;;;;;;5.80;2.30;;;;;;;2.22;63.36;99305.41;9899849;30;20077;-80
2022/02/12 02:28:50;;;;;;;5.63;2.22;;;;;;;2.24;63.28;99303.69;9886716;30;20047;-80
2022/02/12 02:34:48;;;;;;;4.05;2.40;;;;;;;2.19;63.22;99296.16;9903116;29;20055;-80
2022/02/12 02:40:16;;;;;;;6.32;2.60;;;;;;;2.13;63.34;99308.44;9897799;30;20051;-80
2022/02/12 02:45:37;;;;;;;4.40;2.58;;;;;;;2.10;63.62;99321.19;9912595;30;20059;-80
2022/02/12 02:57:06;;;;;;;6.60;3.03;;;;;;;2.20;63.25;99318.94;9898308;30;20055;-80
2022/02/12 03:02:28;;;;;;;7.28;3.60;;;;;;;2.28;63.42;99342.00;9910555;30;20043;-80
2022/02/12 03:07:51;;;;;;;5.05;3.42;;;;;;;2.31;63.78;99335.47;9910047;30;20047;-80
2022/02/12 03:13:13;;;;;;;5.05;3.35;;;;;;;2.26;63.85;99334.25;9897531;30;20108;-80
2022/02/12 03:18:42;;;;;;;5.25;3.50;;;;;;;2.26;63.87;99348.03;9885953;30;20047;-80
2022/02/12 03:24:03;;;;;;;6.43;3.67;;;;;;;2.34;64.02;99364.06;9910146;30;20050;-80
2022/02/12 03:29:26;;;;;;;7.07;3.47;;;;;;;2.51;63.85;99371.09;9909856;30;20056;-80
2022/02/12 03:35:17;;;;;;;5.95;3.60;;;;;;;2.72;63.27;99363.31;9900846;30;20051;-80
2022/02/12 03:40:45;;;;;;;8.48;3.58;;;;;;;2.79;62.95;99362.03;9908928;30;20108;-80
2022/02/12 03:47:48;;;;;;;5.72;4.13;;;;;;;2.83;63.34;99368.81;9757172;30;20132;-80
2022/02/12 03:53:16;;;;;;;5.90;4.03;;;;;;;2.83;63.17;99379.84;9735204;30;20456;-80
2022/02/12 03:58:48;;;;;;;6.38;3.58;;;;;;;2.75;63.25;99380.84;9736436;30;20562;-80
2022/02/12 04:04:37;;;;;;;5.68;3.35;;;;;;;2.67;63.04;99382.63;9880260;29;20059;-80
2022/02/12 04:09:58;;;;;;;5.07;2.70;;;;;;;2.51;62.98;99370.31;9895233;30;20047;-80
2022/02/12 04:15:18;;;;;;;5.45;3.30;;;;;;;2.38;63.37;99378.34;9896153;30;20048;-80
2022/02/12 04:20:39;;;;;;;5.90;3.00;;;;;;;2.27;63.32;99371.56;9882982;30;20043;-79
2022/02/12 04:26:03;;;;;;;6.32;3.17;;;;;;;2.15;63.21;99369.31;9882743;30;20051;-80
2022/02/12 04:31:24;;;;;;;4.38;2.85;;;;;;;2.09;63.13;99387.81;9920995;29;20414;-80
2022/02/12 04:36:45;;;;;;;4.47;2.53;;;;;;;2.01;63.18;99385.53;9907423;30;20048;-80
2022/02/12 04:42:11;;;;;;;5.45;3.08;;;;;;;1.93;63.26;99379.03;9895627;30;20055;-80
2022/02/12 04:47:32;;;;;;;4.03;2.83;;;;;;;1.83;63.42;99391.47;9895498;30;20071;-80
2022/02/12 04:52:53;;;;;;;4.50;2.60;;;;;;;1.70;63.58;99388.44;9895172;30;20067;-79
2022/02/12 04:58:15;;;;;;;5.80;2.67;;;;;;;1.63;63.51;99386.16;9883043;30;20043;-79
2022/02/12 05:03:36;;;;;;;7.10;2.80;;;;;;;1.56;63.83;99395.66;9899997;30;20051;-80
2022/02/12 05:08:59;;;;;;;5.32;2.58;;;;;;;1.53;63.68;99390.38;9890676;30;20115;-79
2022/02/12 05:14:20;;;;;;;6.82;3.22;;;;;;;1.43;63.52;99387.06;9916141;30;20098;-80
2022/02/12 05:19:41;;;;;;;5.00;2.78;;;;;;;1.37;64.11;99394.56;9899959;30;20132;-81
2022/02/12 05:25:03;;;;;;;5.13;2.72;;;;;;;1.30;63.95;99395.75;9930444;30;20055;-79
2022/02/12 05:30:23;;;;;;;4.28;2.90;;;;;;;1.21;63.97;99390.47;9915786;30;20051;-79
2022/02/12 05:35:45;;;;;;;6.93;3.20;;;;;;;1.11;63.61;99400.16;9901729;30;20055;-79
2022/02/12 05:41:07;;;;;;;5.57;3.05;;;;;;;1.01;64.16;99404.34;9899811;30;20149;-79
2022/02/12 05:52:37;;;;;;;7.07;3.30;;;;;;;0.85;64.48;99400.22;9920194;29;20052;-83
2022/02/12 05:57:59;;;;;;;6.25;3.55;;;;;;;0.85;64.23;99405.72;9898864;29;20036;-83
2022/02/12 06:03:21;;;;;;;5.32;2.70;;;;;;;0.79;64.16;99400.19;9883653;30;20059;-81
2022/02/12 06:08:44;;;;;;;5.28;2.85;;;;;;;0.77;64.05;99404.66;9907777;29;20031;-83
2022/02/12 06:14:06;;;;;;;5.43;2.78;;;;;;;0.80;64.19;99398.19;9919637;29;20115;-85
2022/02/12 06:25:48;;;;;;;6.82;3.55;;;;;;;0.84;64.26;99399.47;11377324;24;20089;-79
2022/02/12 06:31:09;;;;;;;5.97;2.85;;;;;;;0.89;64.48;99400.00;9981867;29;20602;-77
2022/02/12 06:36:30;;;;;;;6.78;2.97;;;;;;;0.99;64.39;99393.06;10009293;29;20501;-78
2022/02/12 06:41:53;;;;;;;7.50;2.97;;;;;;;2.62;64.42;99391.66;9984959;29;20132;-78
2022/02/12 06:47:14;;;;;;;4.63;2.53;;;;;;;5.79;61.44;99406.88;9996106;29;20045;-78
2022/02/12 06:52:36;;;;;;;6.35;4.13;;;;;;;7.97;58.75;99408.09;9971368;29;20473;-78
2022/02/12 06:57:57;;;;;;;9.15;6.93;;;;;;;10.08;54.88;99413.75;9982977;29;20128;-78
2022/02/12 07:03:17;;;;;;;7.70;4.97;;;;;;;11.81;53.52;99418.59;9995744;29;20057;-78
2022/02/12 07:08:38;;;;;;;7.78;4.60;;;;;;;13.14;51.72;99425.91;9983602;29;20566;-78
2022/02/12 07:14:01;;;;;;;10.10;6.20;;;;;;;14.43;48.91;99425.84;9997262;29;20057;-78
2022/02/12 07:19:22;;;;;;;7.28;4.35;;;;;;;15.98;40.64;99427.09;10009165;29;20054;-77
2022/02/12 07:24:43;;;;;;;5.93;3.42;;;;;;;16.98;43.37;99422.91;9990843;29;20422;-77
2022/02/12 07:30:09;;;;;;;6.72;2.83;;;;;;;18.22;39.75;99426.25;9958729;29;20103;-75
2022/02/12 07:35:30;;;;;;;6.30;4.00;;;;;;;19.11;34.71;99431.13;9970716;29;20532;-75
2022/02/12 07:40:52;;;;;;;5.72;2.50;;;;;;;19.31;25.74;99430.88;9970093;29;20061;-76
2022/02/12 07:46:13;;;;;;;3.50;2.40;;;;;;;20.18;30.73;99435.97;9957466;29;20046;-76
2022/02/12 07:51:37;;;;;;;4.55;1.98;;;;;;;20.42;28.38;99435.84;9957450;29;20383;-76
2022/02/12 07:56:59;;;;;;;3.40;1.60;;;;;;;21.49;29.19;99434.47;9957133;29;20054;-86
2022/02/12 08:02:20;;;;;;;3.53;2.00;;;;;;;21.63;23.06;99446.59;9957010;29;20057;-83
2022/02/12 08:07:40;;;;;;;5.38;2.08;;;;;;;22.74;23.95;99450.53;9956430;29;20425;-83
2022/02/12 08:13:01;;;;;;;2.90;1.70;;;;;;;20.93;26.39;99456.38;9956462;29;20046;-83
2022/02/12 08:18:28;;;;;;;3.40;1.85;;;;;;;20.24;25.41;99464.66;9957933;29;20108;-86
2022/02/12 08:23:49;;;;;;;7.80;3.17;;;;;;;24.81;19.90;99470.81;9968621;29;20050;-83
2022/02/12 08:29:10;;;;;;;5.72;2.63;;;;;;;25.72;16.54;99472.72;9943502;29;20051;-84
2022/02/12 08:34:31;;;;;;;4.80;2.10;;;;;;;28.39;14.33;99469.88;9955725;29;20499;-84
2022/02/12 08:39:53;;;;;;;4.35;2.58;;;;;;;29.21;16.05;99475.28;9975276;29;20054;-86
2022/02/12 08:45:14;;;;;;;6.05;2.70;;;;;;;30.49;14.26;99468.97;9962334;29;20485;-85
2022/02/12 08:50:38;;;;;;;4.53;2.70;;;;;;;29.58;13.42;99470.28;9962295;29;20051;-84
2022/02/12 08:56:00;;;;;;;5.40;2.10;;;;;;;30.97;13.30;99476.16;9962853;29;20410;-84
2022/02/12 09:01:20;;;;;;;4.75;2.35;;;;;;;31.84;12.44;99482.97;9973720;29;20042;-80
2022/02/12 09:06:41;;;;;;;5.47;2.70;;;;;;;30.91;11.19;99481.84;9949761;29;20056;-86
2022/02/12 09:12:03;;;;;;;4.65;2.45;;;;;;;31.44;11.39;99471.72;9949294;29;20043;-82
2022/02/12 09:17:24;;;;;;;4.80;2.70;;;;;;;31.84;11.05;99471.44;9961982;29;20497;-82
2022/02/12 09:22:45;;;;;;;;;;;;;;;32.17;9.67;99474.63;9936629;29;20083;-79
2022/02/12 09:28:06;;;;;;;2.47;1.90;;;;;;;32.40;10.03;99484.19;9973624;29;19928;-78
2022/02/12 09:33:27;;;;;;;3.70;2.55;;;;;;;32.19;10.39;99481.13;9948644;29;20050;-80
2022/02/12 09:38:48;;;;;;;4.63;2.92;;;;;;;33.17;10.10;99476.00;9948697;29;20051;-81
2022/02/12 09:44:10;;;;;;;6.45;2.80;;;;;;;33.13;9.43;99475.28;9948694;29;20046;-82
2022/02/12 09:49:32;;;;;;;3.58;2.47;;;;;;;34.70;9.23;99470.44;9947287;29;20477;-82
2022/02/12 09:54:53;;;;;;;4.50;2.60;;;;;;;33.96;8.76;99451.63;9960943;29;20055;-77
2022/02/12 10:00:17;;;;;;;4.15;2.40;;;;;;;34.60;8.67;99450.16;9947654;29;20063;-77
2022/02/12 10:05:42;;;;;;;5.40;2.80;;;;;;;34.34;8.31;99448.72;9960437;29;20050;-82
2022/02/12 10:11:23;;;;;;;8.23;3.28;;;;;;;33.62;8.40;99437.81;9960742;29;20161;-82
2022/02/12 10:17:08;;;;;;;5.15;2.88;;;;;;;34.24;7.93;99436.41;9973534;29;20125;-76
2022/02/12 10:22:29;;;;;;;5.78;3.17;;;;;;;32.05;8.93;99431.94;9961790;29;20053;-83
2022/02/12 10:27:50;;;;;;;4.68;3.20;;;;;;;31.37;9.52;99400.97;9961897;29;20066;-82
2022/02/12 10:33:11;;;;;;;;;;;;;;;27.05;12.03;99403.22;9997182;29;20049;-80
2022/02/12 10:38:34;;;;;;;2.92;2.13;;;;;;;24.49;13.60;99395.31;9984357;29;19929;-81
2022/02/12 10:43:55;;;;;;;4.75;3.03;;;;;;;22.83;15.99;99379.09;9978670;29;20485;-83
2022/02/12 10:49:16;;;;;;;4.68;2.90;;;;;;;21.01;17.33;99383.03;9993037;29;20050;-80
2022/02/12 10:54:50;;;;;;;4.15;2.55;;;;;;;19.98;18.99;99356.19;10008034;29;20450;-85
2022/02/12 11:00:11;;;;;;;5.32;2.60;;;;;;;19.38;19.29;99348.50;9982190;29;20074;-81
2022/02/12 11:05:35;;;;;;;5.75;2.78;;;;;;;18.60;20.40;99353.69;9983300;29;20061;-88
2022/02/12 11:10:57;;;;;;;5.75;2.70;;;;;;;17.56;20.88;99332.25;10008108;29;20450;-77
2022/02/12 11:16:17;;;;;;;5.97;2.75;;;;;;;17.36;21.55;99328.84;9995292;29;20110;-76
2022/02/12 11:21:38;;;;;;;6.03;3.22;;;;;;;15.89;22.82;99320.84;9980775;29;20088;-81
2022/02/12 11:26:59;;;;;;;4.80;3.30;;;;;;;15.50;24.66;99317.28;9994245;29;20124;-75
2022/02/12 11:32:22;;;;;;;4.78;3.60;;;;;;;16.44;23.60;99307.81;10004128;29;20065;-74
2022/02/12 11:37:45;;;;;;;4.90;3.47;;;;;;;16.50;23.31;99296.94;9991422;29;20046;-77
2022/02/12 11:43:11;;;;;;;6.88;5.05;;;;;;;15.85;24.00;99304.41;10014471;29;20082;-77
2022/02/12 11:48:35;;;;;;;4.72;3.65;;;;;;;15.51;23.82;99297.00;9976106;29;20688;-76
2022/02/12 11:53:56;;;;;;;7.22;4.22;;;;;;;13.66;26.64;99300.47;9991524;29;20049;-77
2022/02/12 11:59:18;;;;;;;5.60;4.35;;;;;;;12.61;27.18;99292.53;9991934;29;20102;-76
2022/02/12 12:04:41;;;;;;;6.78;4.43;;;;;;;12.26;28.67;99286.84;9992218;29;20511;-75
2022/02/12 12:10:05;;;;;;;6.10;5.00;;;;;;;11.22;32.57;99281.88;9981740;29;20046;-76
2022/02/12 12:15:29;;;;;;;7.27;5.07;;;;;;;10.28;32.27;99259.44;10000118;29;20452;-75
2022/02/12 12:20:50;;;;;;;;;;;;;;;9.56;34.97;99245.69;9997052;29;20638;-76
2022/02/12 12:26:12;;;;;;;7.20;4.57;;;;;;;9.95;34.85;99242.44;10005708;29;20283;-76
2022/02/12 12:31:32;;;;;;;4.50;3.53;;;;;;;11.50;32.96;99236.88;10008192;29;20042;-75
2022/02/12 12:36:57;;;;;;;6.57;3.92;;;;;;;12.15;31.54;99227.72;9997635;29;20054;-75
2022/02/12 12:42:21;;;;;;;4.60;2.95;;;;;;;12.26;30.63;99225.25;9986689;29;20460;-76
2022/02/12 12:47:51;;;;;;;4.65;3.03;;;;;;;12.30;30.59;99225.56;9997678;29;20046;-75
2022/02/12 12:53:12;;;;;;;6.38;3.47;;;;;;;12.33;30.84;99218.06;9969584;29;20053;-75
2022/02/12 12:58:36;;;;;;;4.88;3.40;;;;;;;12.48;30.09;99226.38;9998746;29;20046;-78
2022/02/12 13:04:00;;;;;;;5.50;3.10;;;;;;;11.22;30.58;99206.41;9987506;29;20413;-77
2022/02/12 13:09:21;;;;;;;4.80;3.42;;;;;;;10.31;32.13;99202.50;10002604;29;20409;-80
2022/02/12 13:14:45;;;;;;;4.85;3.33;;;;;;;9.83;33.19;99188.28;9990181;29;20120;-75
2022/02/12 13:20:06;;;;;;;4.07;3.40;;;;;;;9.97;33.11;99184.06;9999819;29;20057;-75
2022/02/12 13:25:44;;;;;;;7.47;4.40;;;;;;;9.78;34.45;99180.88;9999889;29;20069;-76
2022/02/12 13:31:07;;;;;;;6.15;3.88;;;;;;;9.61;34.27;99172.28;10000553;29;20045;-76
2022/02/12 13:36:28;;;;;;;4.68;3.60;;;;;;;9.90;34.52;99162.47;10011960;29;20114;-76
2022/02/12 13:41:58;;;;;;;6.53;3.83;;;;;;;10.26;33.88;99151.16;9999221;29;20054;-76
2022/02/12 13:47:19;;;;;;;6.10;4.30;;;;;;;9.95;35.31;99147.59;9998998;29;20046;-75
2022/02/12 13:53:01;;;;;;;6.15;4.35;;;;;;;9.23;35.40;99133.91;10011828;29;20050;-77
2022/02/12 13:58:25;;;;;;;7.53;4.25;;;;;;;8.54;36.97;99138.44;9998495;29;20049;-76
2022/02/12 14:03:46;;;;;;;5.80;3.75;;;;;;;8.58;35.98;99116.56;9997748;29;20042;-76
2022/02/12 14:09:12;;;;;;;5.47;3.33;;;;;;;8.03;36.24;99122.31;9976469;29;20121;-79
2022/02/12 14:14:33;;;;;;;4.93;3.30;;;;;;;7.75;37.12;99118.19;9962358;29;20050;-76
2022/02/12 14:19:53;;;;;;;5.55;3.78;;;;;;;7.80;37.61;99113.03;9960133;29;20482;-75
2022/02/12 14:25:14;;;;;;;4.93;3.40;;;;;;;8.54;36.94;99114.13;9972704;29;20061;-77
2022/02/12 14:30:34;;;;;;;4.93;3.28;;;;;;;8.57;36.72;99099.09;9985606;29;20042;-77
2022/02/12 14:35:59;;;;;;;4.70;2.83;;;;;;;8.63;36.11;99093.41;9973338;29;20053;-77
2022/02/12 14:41:19;;;;;;;2.70;2.00;;;;;;;8.20;35.89;99080.91;9986745;29;20107;-75
2022/02/12 14:46:43;;;;;;;3.83;2.25;;;;;;;8.12;36.25;99066.19;9971337;29;20050;-75
2022/02/12 14:52:07;;;;;;;3.73;2.57;;;;;;;7.95;36.10;99058.28;9960194;29;20049;-77
2022/02/12 14:57:28;;;;;;;5.28;2.80;;;;;;;7.65;35.98;99058.81;9934622;29;20051;-77
2022/02/12 15:02:49;;;;;;;5.60;2.67;;;;;;;7.42;36.78;99053.06;9972279;29;20062;-76
2022/02/12 15:08:10;;;;;;;4.88;2.78;;;;;;;7.42;36.65;99057.88;9971191;29;20046;-76
2022/02/12 15:13:31;;;;;;;5.35;2.78;;;;;;;7.35;37.11;99048.19;9958685;29;20051;-77
2022/02/12 15:18:52;;;;;;;4.38;2.58;;;;;;;7.30;37.40;99039.97;9958619;29;20546;-76
2022/02/12 15:24:12;;;;;;;4.65;3.10;;;;;;;7.38;37.29;99036.00;9958770;29;20050;-76
2022/02/12 15:29:36;;;;;;;5.95;3.28;;;;;;;7.17;37.86;99027.66;9971028;29;20050;-77
2022/02/12 15:34:57;;;;;;;6.28;3.40;;;;;;;6.87;38.25;99035.69;9945089;29;20051;-77
2022/02/12 15:40:19;;;;;;;7.20;3.85;;;;;;;6.61;39.58;99019.84;9970017;29;20050;-76
2022/02/12 15:45:40;;;;;;;6.65;3.90;;;;;;;6.32;38.93;99013.41;9969445;29;20053;-75
2022/02/12 15:51:03;;;;;;;5.80;3.88;;;;;;;6.18;40.27;99001.59;9969667;29;20474;-75
2022/02/12 15:56:25;;;;;;;7.37;4.33;;;;;;;5.97;40.58;99001.47;9982383;29;20046;-76
2022/02/12 16:01:46;;;;;;;7.88;4.47;;;;;;;5.80;40.16;98994.75;9944857;29;20054;-78
2022/02/12 16:07:06;;;;;;;6.53;4.05;;;;;;;5.68;40.46;98983.09;9982284;29;20057;-74
2022/02/12 16:12:49;;;;;;;9.48;4.68;;;;;;;5.55;41.06;98978.31;9963300;29;20065;-77
2022/02/12 16:18:10;;;;;;;9.27;5.40;;;;;;;5.44;40.88;98976.47;9969226;29;20046;-73
2022/02/12 16:23:31;;;;;;;8.55;5.10;;;;;;;5.33;41.17;98968.38;9969031;29;20074;-79
2022/02/12 16:28:52;;;;;;;9.90;5.38;;;;;;;5.27;41.34;98986.34;9969956;29;20066;-77
2022/02/12 16:34:13;;;;;;;10.63;6.20;;;;;;;5.21;41.51;98975.38;9955942;29;20539;-76
2022/02/12 16:39:34;;;;;;;9.95;6.80;;;;;;;5.17;41.75;98969.41;9969036;29;20099;-76
2022/02/12 16:44:55;;;;;;;10.73;6.43;;;;;;;5.07;41.36;98962.78;9955838;29;20046;-77
2022/02/12 16:50:15;;;;;;;11.95;6.70;;;;;;;5.04;42.16;98947.97;9955873;29;20054;-78
2022/02/12 16:55:36;;;;;;;8.35;5.47;;;;;;;5.03;42.19;98946.50;9955977;29;20413;-78
2022/02/12 17:00:57;;;;;;;9.27;5.97;;;;;;;5.03;42.50;98956.81;9977334;29;20383;-75
2022/02/12 17:06:18;;;;;;;8.98;5.30;;;;;;;4.94;42.63;98946.16;9988028;29;20402;-75
2022/02/12 17:11:39;;;;;;;9.45;5.60;;;;;;;4.84;43.54;98943.78;9962205;29;20054;-79
2022/02/12 17:16:59;;;;;;;11.93;7.00;;;;;;;4.71;43.18;98940.94;9962259;29;20054;-79
2022/02/12 17:22:20;;;;;;;14.25;6.10;;;;;;;4.69;43.58;98948.28;9974357;29;20508;-79
2022/02/12 17:27:41;;;;;;;13.35;6.50;;;;;;;4.66;44.11;98946.56;9961827;29;20062;-79
2022/02/12 17:33:02;;;;;;;9.57;6.18;;;;;;;4.63;44.08;98931.00;9974435;29;20474;-79
2022/02/12 17:38:23;;;;;;;10.52;6.97;;;;;;;4.61;44.37;98934.31;9961489;29;20043;-78
2022/02/12 17:43:43;;;;;;;15.80;9.65;;;;;;;4.59;44.42;98936.84;9961632;29;20051;-78
2022/02/12 17:49:04;;;;;;;14.48;8.63;;;;;;;4.47;44.44;98930.00;9948489;29;20046;-79
2022/02/12 17:54:25;;;;;;;19.10;10.55;;;;;;;4.29;45.61;98926.72;9960849;29;20501;-79
2022/02/12 17:59:46;;;;;;;19.98;11.40;;;;;;;4.18;46.01;98920.59;9960956;29;20046;-80
2022/02/12 18:05:08;;;;;;;14.85;8.70;;;;;;;4.07;46.43;98918.75;9996389;29;20038;-84
2022/02/12 18:10:32;;;;;;;11.77;7.67;;;;;;;4.03;46.08;98912.75;9997756;29;20050;-81
2022/02/12 18:15:53;;;;;;;12.68;8.18;;;;;;;4.04;46.19;98908.72;9960708;29;20098;-79
2022/02/12 18:21:14;;;;;;;12.68;8.07;;;;;;;4.04;46.55;98917.00;9959996;29;20121;-79
2022/02/12 18:26:36;;;;;;;15.30;8.48;;;;;;;4.00;46.24;98913.81;9959730;29;20224;-79
2022/02/12 18:31:57;;;;;;;15.65;8.13;;;;;;;3.85;46.48;98907.94;9959827;29;20052;-81
2022/02/12 18:37:18;;;;;;;14.02;8.43;;;;;;;3.76;47.92;98914.59;9972528;29;20046;-79
2022/02/12 18:43:07;;;;;;;14.05;8.18;;;;;;;3.60;48.67;98908.00;9966529;29;20058;-79
2022/02/12 18:48:29;;;;;;;14.40;7.95;;;;;;;3.59;48.23;98894.72;9971696;29;20107;-77
2022/02/12 18:53:51;;;;;;;13.52;8.57;;;;;;;3.47;49.19;98887.81;9959022;29;20512;-77
2022/02/12 18:59:12;;;;;;;15.35;8.35;;;;;;;3.47;49.21;98868.50;9946400;29;20137;-78
2022/02/12 19:04:34;;;;;;;13.52;8.25;;;;;;;3.43;48.72;98879.84;9946158;29;20042;-77
2022/02/12 19:09:55;;;;;;;14.70;8.45;;;;;;;3.41;48.98;98868.56;9958165;29;20047;-79
2022/02/12 19:15:16;;;;;;;16.48;8.75;;;;;;;3.41;49.44;98869.31;9983292;29;20073;-86
2022/02/12 19:20:37;;;;;;;14.02;8.43;;;;;;;3.40;48.70;98867.06;10005082;29;20055;-84
2022/02/12 19:25:58;;;;;;;13.55;8.13;;;;;;;3.44;49.03;98871.03;9997413;29;20117;-84
2022/02/12 19:31:19;;;;;;;15.35;8.93;;;;;;;3.40;49.45;98859.53;10004113;29;20083;-85
2022/02/12 19:36:41;;;;;;;14.13;8.57;;;;;;;3.31;49.13;98865.41;10008540;29;20037;-84
2022/02/12 19:42:06;;;;;;;15.10;8.68;;;;;;;3.34;49.33;98869.16;9994731;29;20122;-84
2022/02/12 19:47:27;;;;;;;14.80;8.68;;;;;;;3.24;49.59;98856.97;10030811;29;20031;-85
2022/02/12 19:52:49;;;;;;;15.07;9.10;;;;;;;3.16;49.42;98860.28;10006842;29;20058;-84
2022/02/12 19:58:09;;;;;;;16.13;9.13;;;;;;;3.06;50.71;98864.66;10005268;29;20054;-84
2022/02/12 20:03:30;;;;;;;13.20;8.93;;;;;;;2.97;50.33;98859.47;10005306;29;20114;-84
2022/02/12 20:08:52;;;;;;;15.15;9.88;;;;;;;2.84;51.58;98845.56;10008821;29;20058;-84
2022/02/12 20:14:14;;;;;;;19.00;8.88;;;;;;;2.76;52.02;98844.66;9944368;29;20518;-82
2022/02/12 20:19:35;;;;;;;13.55;8.73;;;;;;;2.71;51.34;98843.44;9958993;29;20061;-82
2022/02/12 20:24:55;;;;;;;17.45;8.70;;;;;;;2.70;51.45;98830.16;9959271;29;20066;-82
2022/02/12 20:30:22;;;;;;;19.10;9.32;;;;;;;2.66;52.48;98832.47;9961627;29;20058;-83
2022/02/12 20:35:43;;;;;;;15.02;9.10;;;;;;;2.66;51.77;98827.69;9966834;29;20057;-81
2022/02/12 20:41:05;;;;;;;14.65;9.13;;;;;;;2.55;52.02;98809.25;9963681;29;20047;-80
2022/02/12 20:46:26;;;;;;;15.88;9.90;;;;;;;2.52;53.12;98813.03;9972943;29;20110;-79
2022/02/12 20:51:47;;;;;;;16.90;9.45;;;;;;;2.51;52.26;98806.03;9973854;29;20046;-80
2022/02/12 20:57:08;;;;;;;14.40;9.73;;;;;;;2.45;52.20;98799.81;9995763;29;20046;-79
2022/02/12 21:02:29;;;;;;;15.23;8.90;;;;;;;2.46;52.53;98806.81;9980605;29;20049;-79
2022/02/12 21:07:49;;;;;;;17.23;9.50;;;;;;;2.41;53.10;98798.56;9996000;29;20057;-80
2022/02/12 21:13:10;;;;;;;16.42;9.10;;;;;;;2.41;52.92;98793.81;9992108;29;20050;-79
2022/02/12 21:18:34;;;;;;;15.80;8.57;;;;;;;2.39;52.89;98801.84;9987009;29;20392;-79
2022/02/12 21:23:56;;;;;;;13.93;8.82;;;;;;;2.40;52.98;98800.59;9996252;29;20454;-80
2022/02/12 21:29:18;;;;;;;14.82;9.15;;;;;;;2.36;53.40;98789.13;9982290;29;20064;-79
2022/02/12 21:34:39;;;;;;;14.70;9.02;;;;;;;2.35;53.58;98795.13;9994087;29;20409;-80
2022/02/12 21:40:02;;;;;;;13.50;8.07;;;;;;;2.38;53.14;98788.59;9990753;29;20045;-80
2022/02/12 21:45:23;;;;;;;14.55;8.23;;;;;;;2.38;53.09;98785.84;9976992;29;20046;-79
2022/02/12 21:50:49;;;;;;;13.95;8.30;;;;;;;2.35;53.54;98784.88;10009216;29;20038;-79
2022/02/12 21:56:10;;;;;;;15.65;10.25;;;;;;;2.22;53.75;98773.69;10005173;29;20508;-79
2022/02/12 22:01:30;;;;;;;23.85;11.98;;;;;;;2.05;54.21;98771.06;9993050;29;20053;-79
2022/02/12 22:06:51;;;;;;;13.77;9.13;;;;;;;2.04;54.77;98761.31;9983121;29;20114;-79
2022/02/12 22:12:12;;;;;;;14.70;8.60;;;;;;;2.02;54.36;98758.31;9995534;29;20098;-79
2022/02/12 22:17:33;;;;;;;15.60;8.60;;;;;;;1.99;54.33;98753.84;10005368;29;20066;-79
2022/02/12 22:22:54;;;;;;;15.07;8.70;;;;;;;1.97;54.90;98739.84;9975331;29;20054;-79
2022/02/12 22:28:16;;;;;;;17.80;9.20;;;;;;;1.91;54.95;98748.13;9982136;29;20062;-79
2022/02/12 22:33:37;;;;;;;14.63;9.50;;;;;;;1.86;54.27;98734.41;9977097;29;20070;-79
2022/02/12 22:38:59;;;;;;;14.27;9.40;;;;;;;1.73;54.71;98732.25;9994847;29;20038;-80
2022/02/12 22:44:19;;;;;;;16.40;9.18;;;;;;;1.66;55.75;98721.78;9991614;29;20049;-79
2022/02/12 22:49:40;;;;;;;14.68;9.70;;;;;;;1.56;55.62;98721.34;9994009;29;20041;-79
2022/02/12 22:55:03;;;;;;;16.52;10.18;;;;;;;1.52;56.13;98715.38;9976212;29;20042;-79
2022/02/12 23:00:24;;;;;;;17.55;9.98;;;;;;;1.56;56.04;98706.84;9992084;29;20046;-79
2022/02/12 23:05:45;;;;;;;15.35;9.60;;;;;;;1.52;55.52;98718.13;10030431;24;20515;-79
2022/02/12 23:11:06;;;;;;;14.88;8.80;;;;;;;1.46;55.70;98698.16;10017573;29;20580;-79
2022/02/12 23:16:27;;;;;;;14.85;10.02;;;;;;;1.39;56.46;98701.44;10017846;29;20045;-79
2022/02/12 23:21:50;;;;;;;17.05;10.05;;;;;;;1.32;56.87;98688.97;9968086;29;20401;-78
2022/02/12 23:27:10;;;;;;;15.40;9.52;;;;;;;1.28;56.91;98674.75;9982789;29;20046;-79
2022/02/12 23:32:31;;;;;;;16.75;10.43;;;;;;;1.20;57.06;98670.31;9982482;29;20042;-78
2022/02/12 23:37:55;;;;;;;17.35;9.82;;;;;;;1.15;56.85;98671.81;10007646;29;20389;-79
2022/02/12 23:43:17;;;;;;;14.13;9.73;;;;;;;1.12;57.32;98670.84;9994865;29;20046;-79
2022/02/12 23:48:38;;;;;;;16.30;9.70;;;;;;;1.07;56.85;98659.88;9994789;29;20428;-79
2022/02/12 23:53:59;;;;;;;20.13;9.80;;;;;;;1.08;56.76;98655.88;9979365;29;20065;-78
2022/02/12 23:59:19;;;;;;;14.23;9.10;;;;;;;1.06;57.46;98645.38;9994411;29;20501;-78
